createdAt,value
2022-12-23T00:02:20.592Z,39.86
2022-12-23T00:04:47.639Z,39.45
2022-12-23T00:07:14.603Z,39.32
2022-12-23T00:09:41.593Z,40.37
2022-12-23T00:12:27.232Z,39.25
2022-12-23T00:15:06.392Z,39.76
2022-12-23T00:17:45.203Z,39.54
2022-12-23T00:20:15.270Z,39.84
2022-12-23T00:23:00.613Z,40.50
2022-12-23T00:25:44.671Z,40.19
2022-12-23T00:28:20.733Z,39.43
2022-12-23T00:30:53.555Z,39.88
2022-12-23T00:33:23.719Z,39.01
2022-12-23T00:35:51.563Z,39.32
2022-12-23T00:38:42.581Z,40.60
2022-12-23T00:41:32.161Z,40.30
2022-12-23T00:43:59.162Z,40.96
2022-12-23T00:46:26.211Z,39.76
2022-12-23T00:49:12.010Z,40.47
2022-12-23T00:51:38.981Z,40.45
2022-12-23T00:54:06.700Z,41.00
2022-12-23T00:56:33.656Z,40.21
2022-12-23T00:59:00.720Z,40.15
2022-12-23T01:01:46.505Z,39.82
2022-12-23T01:04:34.139Z,40.00
2022-12-23T01:07:01.507Z,40.51
2022-12-23T01:09:28.738Z,40.70
2022-12-23T01:11:55.568Z,41.12
2022-12-23T01:14:22.611Z,40.88
2022-12-23T01:16:50.069Z,40.55
2022-12-23T01:19:17.559Z,40.56
2022-12-23T01:21:44.563Z,40.77
2022-12-23T01:24:11.656Z,39.52
2022-12-23T01:26:38.612Z,40.47
2022-12-23T01:29:05.559Z,40.02
2022-12-23T01:31:32.526Z,40.75
2022-12-23T01:33:59.513Z,41.00
2022-12-23T01:36:26.491Z,39.74
2022-12-23T01:38:55.289Z,40.92
2022-12-23T01:41:49.081Z,39.91
2022-12-23T01:44:57.594Z,39.44
2022-12-23T01:47:53.545Z,39.47
2022-12-23T01:50:59.581Z,40.36
2022-12-23T01:53:28.314Z,40.25
2022-12-23T01:56:29.643Z,40.39
2022-12-23T01:59:04.625Z,41.36
2022-12-23T02:01:50.410Z,42.05
2022-12-23T02:04:24.368Z,42.32
2022-12-23T02:07:10.251Z,42.49
2022-12-23T02:09:39.626Z,42.02
2022-12-23T02:12:35.173Z,41.37
2022-12-23T02:15:48.696Z,41.94
2022-12-23T02:18:21.389Z,42.14
2022-12-23T02:20:54.051Z,41.83
2022-12-23T02:23:36.137Z,42.22
2022-12-23T02:26:30.339Z,43.14
2022-12-23T02:29:28.861Z,42.93
2022-12-23T02:32:12.252Z,42.17
2022-12-23T02:34:54.647Z,41.97
2022-12-23T02:37:30.256Z,42.59
2022-12-23T02:40:05.539Z,42.00
2022-12-23T02:42:50.811Z,42.64
2022-12-23T02:45:25.922Z,42.56
2022-12-23T02:47:59.474Z,42.50
2022-12-23T02:50:33.019Z,42.99
2022-12-23T02:53:06.672Z,43.53
2022-12-23T02:55:37.017Z,42.33
2022-12-23T02:58:09.214Z,42.73
2022-12-23T03:00:38.599Z,42.91
2022-12-23T03:03:05.815Z,43.03
2022-12-23T03:05:43.117Z,42.69
2022-12-23T03:08:18.762Z,43.16
2022-12-23T03:11:02.099Z,42.66
2022-12-23T03:13:46.450Z,42.93
2022-12-23T03:16:47.208Z,43.28
2022-12-23T03:19:14.399Z,43.56
2022-12-23T03:22:25.904Z,42.95
2022-12-23T03:24:55.760Z,44.23
2022-12-23T03:27:30.969Z,43.89
2022-12-23T03:30:04.076Z,43.53
2022-12-23T03:32:37.252Z,43.65
2022-12-23T03:35:08.395Z,42.60
2022-12-23T03:37:39.137Z,43.14
2022-12-23T03:40:35.100Z,43.54
2022-12-23T03:43:08.139Z,43.52
2022-12-23T03:45:45.368Z,43.98
2022-12-23T03:48:18.507Z,44.15
2022-12-23T03:50:49.144Z,43.79
2022-12-23T03:53:25.598Z,44.01
2022-12-23T03:55:56.953Z,43.21
2022-12-23T03:58:43.323Z,43.70
2022-12-23T04:01:25.447Z,43.87
2022-12-23T04:04:11.152Z,42.74
2022-12-23T04:06:53.277Z,43.49
2022-12-23T04:09:22.555Z,42.64
2022-12-23T04:11:49.840Z,43.21
2022-12-23T04:14:21.209Z,44.53
2022-12-23T04:16:53.017Z,43.77
2022-12-23T04:19:19.970Z,42.62
2022-12-23T04:21:46.943Z,42.29
2022-12-23T04:24:14.360Z,43.00
2022-12-23T04:26:41.331Z,43.83
2022-12-23T04:29:08.207Z,45.03
2022-12-23T04:31:35.205Z,44.76
2022-12-23T04:34:02.174Z,44.32
2022-12-23T04:36:29.020Z,44.55
2022-12-23T04:38:55.971Z,44.04
2022-12-23T04:41:24.249Z,45.16
2022-12-23T04:43:53.289Z,45.92
2022-12-23T04:46:20.694Z,44.45
2022-12-23T04:48:47.776Z,45.63
2022-12-23T04:51:15.077Z,45.72
2022-12-23T04:53:41.972Z,45.93
2022-12-23T04:56:08.950Z,46.09
2022-12-23T04:58:35.919Z,45.71
2022-12-23T05:01:06.203Z,45.49
2022-12-23T05:03:33.341Z,45.60
2022-12-23T05:06:00.655Z,45.66
2022-12-23T05:08:28.180Z,46.76
2022-12-23T05:10:55.359Z,47.17
2022-12-23T05:13:22.737Z,47.79
2022-12-23T05:15:51.271Z,46.80
2022-12-23T05:18:18.348Z,46.65
2022-12-23T05:20:45.837Z,47.47
2022-12-23T05:23:12.739Z,47.53
2022-12-23T05:25:40.121Z,48.69
2022-12-23T05:28:10.584Z,48.56
2022-12-23T05:30:37.622Z,48.99
2022-12-23T05:33:04.649Z,49.30
2022-12-23T05:35:31.654Z,49.03
2022-12-23T05:37:58.764Z,49.57
2022-12-23T05:40:30.027Z,49.11
2022-12-23T05:42:59.600Z,50.71
2022-12-23T05:45:26.589Z,50.23
2022-12-23T05:47:53.648Z,49.92
2022-12-23T05:50:20.518Z,50.25
2022-12-23T05:52:48.827Z,49.70
2022-12-23T05:55:15.854Z,49.78
2022-12-23T05:57:42.817Z,52.41
2022-12-23T06:00:10.255Z,55.11
2022-12-23T06:02:41.245Z,59.90
2022-12-23T06:05:09.193Z,58.93
2022-12-23T06:07:36.475Z,62.02
2022-12-23T06:10:05.276Z,63.47
2022-12-23T06:12:32.376Z,63.63
2022-12-23T06:14:59.310Z,59.40
2022-12-23T06:17:26.358Z,57.96
2022-12-23T06:19:53.273Z,55.17
2022-12-23T06:22:23.764Z,52.32
2022-12-23T06:24:50.707Z,52.42
2022-12-23T06:27:18.098Z,56.10
2022-12-23T06:29:44.997Z,56.82
2022-12-23T06:32:12.371Z,58.64
2022-12-23T06:34:39.317Z,60.64
2022-12-23T06:37:06.332Z,62.65
2022-12-23T06:39:33.284Z,65.07
2022-12-23T06:42:00.308Z,65.47
2022-12-23T06:44:27.271Z,68.66
2022-12-23T06:46:54.206Z,68.50
2022-12-23T06:49:21.193Z,66.11
2022-12-23T06:51:48.180Z,60.79
2022-12-23T06:54:15.253Z,56.49
2022-12-23T06:56:42.293Z,64.17
2022-12-23T06:59:09.354Z,65.19
2022-12-23T07:01:36.448Z,63.48
2022-12-23T07:04:03.653Z,60.82
2022-12-23T07:06:30.698Z,57.71
2022-12-23T07:08:57.716Z,66.68
2022-12-23T07:11:24.681Z,67.04
2022-12-23T07:13:51.615Z,67.27
2022-12-23T07:16:18.651Z,65.88
2022-12-23T07:18:45.716Z,68.50
2022-12-23T07:21:21.192Z,68.07
2022-12-23T07:23:51.734Z,67.48
2022-12-23T07:26:18.652Z,65.67
2022-12-23T07:28:47.964Z,63.52
2022-12-23T07:31:16.051Z,63.98
2022-12-23T07:33:43.214Z,66.44
2022-12-23T07:36:10.302Z,66.56
2022-12-23T07:38:37.352Z,64.73
2022-12-23T07:41:04.511Z,65.42
2022-12-23T07:43:31.577Z,66.52
2022-12-23T07:46:00.684Z,66.77
2022-12-23T07:48:28.151Z,66.85
2022-12-23T07:51:02.574Z,66.22
2022-12-23T07:53:29.958Z,66.79
2022-12-23T07:55:57.265Z,66.60
2022-12-23T07:58:24.818Z,66.09
2022-12-23T08:00:51.916Z,66.63
2022-12-23T08:03:21.552Z,65.48
2022-12-23T08:05:48.600Z,65.59
2022-12-23T08:08:15.550Z,65.93
2022-12-23T08:10:48.113Z,65.22
2022-12-23T08:13:15.725Z,64.74
2022-12-23T08:15:42.704Z,64.08
2022-12-23T08:18:09.643Z,64.27
2022-12-23T08:20:36.561Z,64.00
2022-12-23T08:23:03.550Z,63.26
2022-12-23T08:25:30.483Z,62.77
2022-12-23T08:27:57.399Z,62.37
2022-12-23T08:30:24.333Z,62.23
2022-12-23T08:32:51.368Z,61.67
2022-12-23T08:35:18.413Z,61.54
2022-12-23T08:37:45.434Z,62.90
2022-12-23T08:40:12.540Z,62.42
2022-12-23T08:42:39.535Z,61.86
2022-12-23T08:45:06.915Z,62.58
2022-12-23T08:47:34.252Z,62.99
2022-12-23T08:50:01.195Z,62.24
2022-12-23T08:52:28.314Z,62.16
2022-12-23T08:54:55.320Z,61.97
2022-12-23T08:57:22.300Z,61.96
2022-12-23T08:59:49.314Z,61.58
2022-12-23T09:02:16.804Z,60.96
2022-12-23T09:04:43.921Z,61.24
2022-12-23T09:07:10.911Z,61.44
2022-12-23T09:09:38.484Z,61.13
2022-12-23T09:12:05.574Z,61.20
2022-12-23T09:14:32.538Z,61.43
2022-12-23T09:16:59.594Z,61.55
2022-12-23T09:19:26.544Z,61.55
2022-12-23T09:21:53.491Z,60.16
2022-12-23T09:24:20.394Z,60.83
2022-12-23T09:26:47.368Z,60.27
2022-12-23T09:29:14.235Z,59.92
2022-12-23T09:31:41.394Z,59.68
2022-12-23T09:34:11.172Z,59.32
2022-12-23T09:36:38.053Z,58.23
2022-12-23T09:39:05.038Z,58.90
2022-12-23T09:42:07.344Z,59.41
2022-12-23T09:44:46.338Z,59.66
2022-12-23T09:47:17.435Z,58.51
2022-12-23T09:49:52.208Z,58.20
2022-12-23T09:52:28.736Z,58.35
2022-12-23T09:54:56.042Z,57.90
2022-12-23T09:57:37.136Z,58.30
2022-12-23T10:00:09.785Z,58.30
2022-12-23T10:03:14.571Z,58.67
2022-12-23T10:06:08.533Z,56.98
2022-12-23T10:08:41.045Z,57.02
2022-12-23T10:11:13.838Z,57.20
2022-12-23T10:14:23.758Z,57.98
2022-12-23T10:17:07.647Z,57.63
2022-12-23T10:19:42.154Z,57.03
2022-12-23T10:22:21.102Z,55.80
2022-12-23T10:24:49.102Z,56.21
2022-12-23T10:27:40.470Z,56.52
2022-12-23T10:30:34.272Z,55.06
2022-12-23T10:33:02.696Z,55.66
2022-12-23T10:36:07.314Z,54.91
2022-12-23T10:38:41.369Z,54.57
2022-12-23T10:41:30.622Z,55.05
2022-12-23T10:44:13.288Z,55.36
2022-12-23T10:46:52.717Z,55.06
2022-12-23T10:49:38.010Z,54.64
2022-12-23T10:52:25.078Z,53.88
2022-12-23T10:54:52.012Z,54.33
2022-12-23T10:57:20.672Z,55.26
2022-12-23T10:59:47.844Z,53.54
2022-12-23T11:02:15.081Z,54.32
2022-12-23T11:04:47.972Z,54.02
2022-12-23T11:07:49.641Z,54.63
2022-12-23T11:10:20.938Z,53.41
2022-12-23T11:12:51.007Z,53.66
2022-12-23T11:15:39.256Z,54.06
2022-12-23T11:18:12.485Z,53.06
2022-12-23T11:20:44.450Z,53.25
2022-12-23T11:23:25.695Z,54.40
2022-12-23T11:26:20.288Z,54.35
2022-12-23T11:28:53.439Z,53.50
2022-12-23T11:31:28.800Z,54.27
2022-12-23T11:33:57.957Z,53.54
2022-12-23T11:36:28.189Z,53.28
2022-12-23T11:39:14.424Z,52.90
2022-12-23T11:41:51.083Z,52.54
2022-12-23T11:44:24.175Z,53.37
2022-12-23T11:46:51.405Z,53.27
2022-12-23T11:49:27.491Z,53.65
2022-12-23T11:52:01.909Z,51.99
2022-12-23T11:54:29.521Z,51.74
2022-12-23T11:56:57.332Z,52.85
2022-12-23T11:59:42.870Z,53.83
2022-12-23T12:02:32.831Z,53.56
2022-12-23T12:05:05.498Z,52.29
2022-12-23T12:07:33.438Z,52.30
2022-12-23T12:10:02.144Z,51.92
2022-12-23T12:12:30.492Z,52.94
2022-12-23T12:14:59.962Z,52.93
2022-12-23T12:17:42.498Z,53.02
2022-12-23T12:20:24.585Z,52.85
2022-12-23T12:22:54.612Z,52.81
2022-12-23T12:25:43.256Z,53.12
2022-12-23T12:28:22.641Z,53.98
2022-12-23T12:31:15.641Z,52.77
2022-12-23T12:33:56.351Z,53.13
2022-12-23T12:36:39.098Z,52.44
2022-12-23T12:39:14.065Z,52.66
2022-12-23T12:41:51.128Z,53.43
2022-12-23T12:44:51.593Z,52.74
2022-12-23T12:47:52.192Z,53.94
2022-12-23T12:50:27.983Z,54.13
2022-12-23T12:53:00.433Z,53.70
2022-12-23T12:55:36.511Z,54.48
2022-12-23T12:58:03.909Z,54.69
2022-12-23T13:00:49.273Z,54.64
2022-12-23T13:03:48.035Z,54.02
2022-12-23T13:06:40.470Z,54.84
2022-12-23T13:09:37.414Z,54.69
2022-12-23T13:12:19.356Z,54.99
2022-12-23T13:15:18.557Z,54.78
2022-12-23T13:18:07.233Z,54.58
2022-12-23T13:20:42.549Z,55.33
2022-12-23T13:26:40.492Z,55.80
2022-12-23T13:29:25.551Z,55.69
2022-12-23T13:32:19.206Z,55.97
2022-12-23T13:35:00.115Z,56.49
2022-12-23T13:37:50.296Z,56.65
2022-12-23T13:40:41.856Z,55.71
2022-12-23T13:43:16.187Z,56.14
2022-12-23T13:45:46.421Z,56.60
2022-12-23T13:48:29.432Z,55.78
2022-12-23T13:51:02.422Z,56.46
2022-12-23T13:53:47.572Z,56.45
2022-12-23T13:56:24.044Z,56.73
2022-12-23T13:58:51.870Z,55.88
2022-12-23T14:01:31.603Z,57.05
2022-12-23T14:04:35.838Z,56.67
2022-12-23T14:07:16.768Z,56.45
2022-12-23T14:09:51.396Z,56.89
2022-12-23T14:12:36.841Z,56.46
2022-12-23T14:15:22.221Z,57.60
2022-12-23T14:17:49.149Z,56.82
2022-12-23T14:20:29.483Z,57.06
2022-12-23T14:23:05.697Z,57.70
2022-12-23T14:25:46.302Z,57.60
2022-12-23T14:28:23.833Z,58.19
2022-12-23T14:30:51.137Z,58.23
2022-12-23T14:33:30.386Z,57.61
2022-12-23T14:36:15.113Z,57.52
2022-12-23T14:38:42.304Z,57.95
2022-12-23T14:41:37.018Z,57.79
2022-12-23T14:44:04.113Z,57.90
2022-12-23T14:46:37.115Z,58.49
2022-12-23T14:49:36.836Z,58.58
2022-12-23T14:51:51.247Z,58.41
2022-12-23T14:54:37.513Z,58.53
2022-12-23T14:57:13.815Z,59.00
2022-12-23T14:59:57.170Z,58.13
2022-12-23T15:02:35.442Z,58.82
2022-12-23T15:05:03.033Z,59.84
2022-12-23T15:07:35.491Z,59.44
2022-12-23T15:10:06.761Z,59.32
2022-12-23T15:12:40.160Z,59.19
2022-12-23T15:15:13.582Z,59.17
2022-12-23T15:17:40.723Z,59.25
2022-12-23T15:20:11.266Z,59.15
2022-12-23T15:22:40.086Z,59.49
2022-12-23T15:25:19.612Z,59.08
2022-12-23T15:27:46.769Z,59.21
2022-12-23T15:30:15.181Z,59.19
2022-12-23T15:32:44.537Z,59.39
2022-12-23T15:35:22.449Z,59.36
2022-12-23T15:37:50.851Z,59.26
2022-12-23T15:40:24.014Z,59.63
2022-12-23T15:42:51.142Z,59.47
2022-12-23T15:45:39.918Z,59.98
2022-12-23T15:48:22.850Z,60.30
2022-12-23T15:50:52.926Z,59.99
2022-12-23T15:53:20.712Z,60.19
2022-12-23T15:55:49.253Z,60.76
2022-12-23T15:58:25.406Z,61.08
2022-12-23T16:00:55.736Z,61.19
2022-12-23T16:03:34.593Z,61.13
2022-12-23T16:06:07.583Z,61.11
2022-12-23T16:08:34.673Z,59.62
2022-12-23T16:11:13.434Z,59.92
2022-12-23T16:13:47.301Z,60.50
2022-12-23T16:16:34.451Z,59.99
2022-12-23T16:19:01.658Z,59.96
2022-12-23T16:21:33.745Z,60.94
2022-12-23T16:24:03.134Z,60.97
2022-12-23T16:26:30.187Z,60.65
2022-12-23T16:29:01.137Z,61.13
2022-12-23T16:31:28.403Z,60.63
2022-12-23T16:33:59.458Z,60.55
2022-12-23T16:36:26.365Z,61.08
2022-12-23T16:39:01.157Z,60.57
2022-12-23T16:41:28.051Z,60.36
2022-12-23T16:43:55.055Z,60.79
2022-12-23T16:46:23.692Z,61.47
2022-12-23T16:48:55.435Z,60.67
2022-12-23T16:51:23.642Z,60.54
2022-12-23T16:53:52.673Z,60.28
2022-12-23T16:56:20.549Z,61.25
2022-12-23T16:58:47.697Z,61.29
2022-12-23T17:01:18.177Z,61.23
2022-12-23T17:03:45.250Z,61.46
2022-12-23T17:06:17.109Z,61.36
2022-12-23T17:08:44.138Z,61.16
2022-12-23T17:11:25.985Z,60.81
2022-12-23T17:13:59.618Z,60.26
2022-12-23T17:16:30.386Z,59.87
2022-12-23T17:18:57.448Z,60.14
2022-12-23T17:21:30.751Z,60.00
2022-12-23T17:24:10.449Z,59.90
2022-12-23T17:26:37.546Z,59.31
2022-12-23T17:29:05.681Z,59.01
2022-12-23T17:31:34.430Z,59.21
2022-12-23T17:34:02.321Z,58.37
2022-12-23T17:36:29.878Z,58.49
2022-12-23T17:38:56.999Z,58.59
2022-12-23T17:41:32.388Z,58.83
2022-12-23T17:43:59.956Z,58.56
2022-12-23T17:46:29.081Z,59.06
2022-12-23T17:48:58.622Z,59.14
2022-12-23T17:51:26.903Z,59.28
2022-12-23T17:54:04.745Z,58.66
2022-12-23T17:56:31.755Z,58.67
2022-12-23T17:58:58.823Z,59.30
2022-12-23T18:01:31.439Z,58.56
2022-12-23T18:04:00.224Z,58.42
2022-12-23T18:06:28.875Z,58.79
2022-12-23T18:08:58.925Z,58.64
2022-12-23T18:11:42.008Z,59.10
2022-12-23T18:14:28.060Z,59.26
2022-12-23T18:16:55.292Z,58.88
2022-12-23T18:19:22.315Z,59.06
2022-12-23T18:21:50.592Z,59.27
2022-12-23T18:24:18.440Z,59.34
2022-12-23T18:26:45.492Z,58.92
2022-12-23T18:29:12.548Z,59.12
2022-12-23T18:31:50.931Z,59.34
2022-12-23T18:34:19.911Z,59.32
2022-12-23T18:36:48.479Z,59.08
2022-12-23T18:39:15.728Z,59.34
2022-12-23T18:41:42.757Z,59.68
2022-12-23T18:44:21.201Z,59.25
2022-12-23T18:46:49.131Z,59.67
2022-12-23T18:49:16.212Z,59.62
2022-12-23T18:51:43.254Z,59.54
2022-12-23T18:54:15.100Z,59.57
2022-12-23T18:56:42.811Z,59.64
2022-12-23T18:59:15.777Z,59.61
2022-12-23T19:01:42.874Z,59.99
2022-12-23T19:04:10.018Z,60.02
2022-12-23T19:06:38.157Z,60.59
2022-12-23T19:09:05.672Z,60.98
2022-12-23T19:11:32.705Z,60.59
2022-12-23T19:13:59.645Z,60.69
2022-12-23T19:16:26.682Z,61.55
2022-12-23T19:18:53.605Z,62.54
2022-12-23T19:21:20.776Z,62.24
2022-12-23T19:23:47.841Z,61.69
2022-12-23T19:26:15.377Z,61.85
2022-12-23T19:28:42.678Z,62.31
2022-12-23T19:31:12.071Z,62.76
2022-12-23T19:33:40.001Z,62.42
2022-12-23T19:36:12.192Z,62.94
2022-12-23T19:38:39.265Z,63.96
2022-12-23T19:41:07.595Z,63.98
2022-12-23T19:43:35.695Z,63.95
2022-12-23T19:46:06.261Z,64.06
2022-12-23T19:48:33.900Z,63.35
2022-12-23T19:51:03.792Z,63.35
2022-12-23T19:53:30.829Z,63.18
2022-12-23T19:56:07.374Z,64.70
2022-12-23T19:58:36.214Z,64.43
2022-12-23T20:01:12.165Z,64.93
2022-12-23T20:03:40.498Z,65.93
2022-12-23T20:06:13.182Z,65.59
2022-12-23T20:08:40.811Z,64.86
2022-12-23T20:11:10.060Z,65.21
2022-12-23T20:13:37.525Z,64.78
2022-12-23T20:16:06.094Z,64.95
2022-12-23T20:18:33.319Z,64.28
2022-12-23T20:21:01.281Z,63.73
2022-12-23T20:23:29.687Z,63.82
2022-12-23T20:25:56.861Z,63.63
2022-12-23T20:28:24.017Z,63.48
2022-12-23T20:31:04.650Z,63.69
2022-12-23T20:33:31.679Z,63.16
2022-12-23T20:35:58.700Z,62.99
2022-12-23T20:38:25.815Z,63.56
2022-12-23T20:40:52.702Z,63.44
2022-12-23T20:43:19.676Z,63.69
2022-12-23T20:45:46.627Z,63.31
2022-12-23T20:48:13.542Z,63.76
2022-12-23T20:50:40.953Z,63.57
2022-12-23T20:53:08.210Z,62.73
2022-12-23T20:55:35.208Z,63.10
2022-12-23T20:58:22.475Z,63.06
2022-12-23T21:00:49.859Z,63.16
2022-12-23T21:03:17.179Z,62.44
2022-12-23T21:05:44.477Z,61.64
2022-12-23T21:08:11.643Z,61.64
2022-12-23T21:10:39.643Z,62.06
2022-12-23T21:13:06.579Z,62.17
2022-12-23T21:15:33.583Z,62.00
2022-12-23T21:18:00.554Z,61.77
2022-12-23T21:20:27.617Z,61.84
2022-12-23T21:22:54.739Z,62.05
2022-12-23T21:25:21.735Z,62.50
2022-12-23T21:27:48.697Z,62.62
2022-12-23T21:30:15.794Z,63.07
2022-12-23T21:32:42.763Z,62.48
2022-12-23T21:35:10.205Z,62.56
2022-12-23T21:37:40.302Z,62.63
2022-12-23T21:40:08.125Z,62.80
2022-12-23T21:42:35.217Z,63.40
2022-12-23T21:45:02.253Z,64.04
2022-12-23T21:47:29.463Z,64.32
2022-12-23T21:49:56.575Z,64.92
2022-12-23T21:52:23.803Z,65.86
2022-12-23T21:54:50.920Z,65.91
2022-12-23T21:57:18.141Z,66.20
2022-12-23T21:59:45.147Z,66.04
2022-12-23T22:02:16.693Z,65.94
2022-12-23T22:04:43.848Z,66.38
2022-12-23T22:07:10.841Z,66.07
2022-12-23T22:09:37.868Z,66.16
2022-12-23T22:12:05.378Z,66.22
2022-12-23T22:14:32.437Z,66.42
2022-12-23T22:16:59.371Z,66.63
2022-12-23T22:19:26.289Z,67.15
2022-12-23T22:21:53.256Z,67.29
2022-12-23T22:24:20.297Z,66.88
2022-12-23T22:26:47.399Z,66.85
2022-12-23T22:29:14.428Z,66.66
2022-12-23T22:31:44.398Z,66.27
2022-12-23T22:34:20.383Z,66.51
2022-12-23T22:36:48.356Z,67.20
2022-12-23T22:39:20.993Z,66.55
2022-12-23T22:41:50.639Z,66.52
2022-12-23T22:44:17.792Z,66.73
2022-12-23T22:46:45.029Z,66.53
2022-12-23T22:49:14.013Z,66.62
2022-12-23T22:51:42.496Z,66.68
2022-12-23T22:54:09.997Z,66.69
2022-12-23T22:56:37.007Z,66.50
2022-12-23T22:59:04.979Z,66.09
2022-12-23T23:01:34.923Z,66.49
2022-12-23T23:04:03.711Z,66.49
2022-12-23T23:06:37.784Z,65.98
2022-12-23T23:09:11.853Z,65.53
2022-12-23T23:11:39.247Z,66.08
2022-12-23T23:14:06.233Z,66.26
2022-12-23T23:16:33.692Z,65.84
2022-12-23T23:19:01.900Z,66.11
2022-12-23T23:21:28.909Z,65.91
2022-12-23T23:23:56.079Z,65.60
2022-12-23T23:26:26.924Z,66.20
2022-12-23T23:28:55.740Z,65.59
2022-12-23T23:34:10.549Z,65.29
2022-12-23T23:36:37.503Z,65.75
2022-12-23T23:39:04.539Z,66.03
2022-12-23T23:41:31.882Z,65.16
2022-12-23T23:43:58.885Z,65.38
2022-12-23T23:46:25.930Z,65.48
2022-12-23T23:48:52.937Z,65.21
2022-12-23T23:51:19.887Z,64.87
2022-12-23T23:53:46.848Z,64.87
2022-12-23T23:56:13.968Z,64.44
2022-12-23T23:58:40.936Z,64.36
